createdAt,value
2019-03-19T00:00:22.041Z,2.38
2019-03-19T00:02:50.915Z,2.31
2019-03-19T00:05:19.810Z,2.43
2019-03-19T00:07:48.805Z,2.53
2019-03-19T00:10:17.847Z,2.51
2019-03-19T00:12:46.712Z,2.61
2019-03-19T00:15:15.697Z,2.58
2019-03-19T00:17:44.591Z,2.50
2019-03-19T00:20:14.756Z,2.48
2019-03-19T00:22:43.930Z,2.48
2019-03-19T00:25:12.921Z,2.46
2019-03-19T00:27:41.824Z,2.41
2019-03-19T00:30:18.034Z,2.45
2019-03-19T00:32:47.957Z,2.49
2019-03-19T00:35:16.914Z,2.46
2019-03-19T00:37:45.860Z,2.52
2019-03-19T00:40:15.862Z,2.47
2019-03-19T00:42:44.820Z,2.34
2019-03-19T00:45:14.646Z,2.16
2019-03-19T00:47:43.501Z,2.10
2019-03-19T00:50:16.543Z,2.00
2019-03-19T00:52:45.519Z,1.87
2019-03-19T00:55:14.696Z,1.77
2019-03-19T00:57:43.556Z,1.83
2019-03-19T01:00:14.509Z,1.81
2019-03-19T01:02:43.529Z,1.76
2019-03-19T01:05:12.379Z,1.78
2019-03-19T01:07:41.269Z,1.69
2019-03-19T01:10:16.956Z,1.69
2019-03-19T01:12:45.050Z,1.67
2019-03-19T01:15:15.479Z,1.67
2019-03-19T01:17:44.417Z,1.68
2019-03-19T01:20:15.253Z,1.74
2019-03-19T01:22:44.116Z,1.81
2019-03-19T01:25:13.429Z,1.71
2019-03-19T01:27:42.349Z,1.73
2019-03-19T01:30:17.649Z,1.71
2019-03-19T01:32:46.510Z,1.72
2019-03-19T01:35:15.493Z,1.57
2019-03-19T01:37:44.445Z,1.46
2019-03-19T01:40:13.758Z,1.49
2019-03-19T01:42:42.810Z,1.47
2019-03-19T01:45:13.081Z,1.46
2019-03-19T01:47:42.134Z,1.34
2019-03-19T01:50:12.600Z,1.32
2019-03-19T01:52:41.514Z,1.39
2019-03-19T01:55:14.755Z,1.23
2019-03-19T01:57:43.655Z,1.13
2019-03-19T02:00:20.072Z,1.14
2019-03-19T02:02:48.979Z,1.13
2019-03-19T02:05:17.901Z,1.12
2019-03-19T02:07:46.749Z,1.19
2019-03-19T02:10:15.880Z,1.14
2019-03-19T02:12:44.752Z,0.95
2019-03-19T02:15:18.399Z,0.96
2019-03-19T02:17:46.500Z,1.00
2019-03-19T02:20:17.445Z,0.87
2019-03-19T02:22:46.491Z,0.99
2019-03-19T02:25:15.612Z,0.99
2019-03-19T02:27:44.573Z,0.99
2019-03-19T02:30:15.361Z,0.94
2019-03-19T02:32:44.414Z,0.96
2019-03-19T02:35:13.381Z,1.02
2019-03-19T02:37:42.441Z,1.00
2019-03-19T02:40:12.928Z,0.95
2019-03-19T02:42:42.000Z,1.01
2019-03-19T02:45:12.346Z,0.86
2019-03-19T02:47:41.303Z,0.94
2019-03-19T02:50:17.015Z,0.93
2019-03-19T02:52:46.155Z,0.72
2019-03-19T02:55:15.100Z,0.88
2019-03-19T02:57:44.083Z,0.80
2019-03-19T03:00:18.183Z,0.76
2019-03-19T03:02:47.241Z,0.59
2019-03-19T03:05:21.779Z,0.63
2019-03-19T03:07:50.634Z,0.56
2019-03-19T03:10:19.535Z,0.43
2019-03-19T03:12:48.502Z,0.45
2019-03-19T03:15:17.496Z,0.49
2019-03-19T03:17:46.355Z,0.34
2019-03-19T03:20:16.387Z,0.37
2019-03-19T03:22:45.445Z,0.55
2019-03-19T03:25:17.207Z,0.56
2019-03-19T03:27:46.189Z,0.57
2019-03-19T03:30:17.360Z,0.44
2019-03-19T03:32:46.397Z,0.49
2019-03-19T03:35:15.497Z,0.47
2019-03-19T03:37:44.544Z,0.47
2019-03-19T03:40:15.576Z,0.62
2019-03-19T03:42:44.708Z,0.51
2019-03-19T03:45:18.027Z,0.49
2019-03-19T03:47:46.944Z,0.42
2019-03-19T03:50:16.861Z,0.51
2019-03-19T03:52:45.829Z,0.44
2019-03-19T03:55:15.615Z,0.36
2019-03-19T03:57:44.468Z,0.22
2019-03-19T04:00:25.375Z,0.32
2019-03-19T04:02:54.232Z,0.49
2019-03-19T04:05:23.134Z,0.58
2019-03-19T04:07:52.074Z,0.57
2019-03-19T04:10:21.021Z,0.64
2019-03-19T04:12:49.987Z,0.72
2019-03-19T04:15:19.459Z,0.69
2019-03-19T04:17:48.462Z,0.67
2019-03-19T04:20:17.839Z,0.62
2019-03-19T04:22:47.096Z,0.56
2019-03-19T04:25:16.150Z,0.64
2019-03-19T04:27:45.334Z,0.59
2019-03-19T04:30:21.379Z,0.64
2019-03-19T04:32:50.371Z,0.52
2019-03-19T04:35:19.320Z,0.68
2019-03-19T04:37:48.279Z,0.49
2019-03-19T04:40:17.695Z,0.42
2019-03-19T04:42:46.575Z,0.65
2019-03-19T04:45:16.346Z,0.53
2019-03-19T04:47:45.336Z,0.68
2019-03-19T04:50:16.176Z,0.72
2019-03-19T04:52:45.141Z,0.70
2019-03-19T04:55:16.080Z,0.77
2019-03-19T04:57:45.052Z,0.84
2019-03-19T05:00:17.893Z,0.73
2019-03-19T05:02:46.759Z,0.58
2019-03-19T05:05:15.721Z,0.43
2019-03-19T05:07:44.622Z,0.22
2019-03-19T05:10:15.950Z,0.24
2019-03-19T05:12:44.929Z,0.34
2019-03-19T05:15:14.074Z,0.33
2019-03-19T05:17:43.061Z,0.31
2019-03-19T05:20:14.226Z,0.34
2019-03-19T05:22:43.376Z,0.53
2019-03-19T05:25:12.521Z,0.51
2019-03-19T05:27:41.528Z,0.47
2019-03-19T05:30:15.403Z,0.56
2019-03-19T05:32:44.544Z,0.72
2019-03-19T05:35:13.410Z,0.79
2019-03-19T05:37:42.308Z,0.79
2019-03-19T05:40:16.128Z,0.56
2019-03-19T05:42:45.209Z,0.56
2019-03-19T05:45:17.453Z,0.60
2019-03-19T05:47:46.318Z,0.63
2019-03-19T05:50:20.233Z,0.49
2019-03-19T05:52:49.172Z,0.37
2019-03-19T05:55:18.024Z,0.46
2019-03-19T05:57:50.014Z,0.58
2019-03-19T06:00:24.042Z,0.69
2019-03-19T06:02:52.895Z,0.75
2019-03-19T06:05:21.824Z,0.88
2019-03-19T06:07:50.674Z,0.98
2019-03-19T06:10:19.614Z,1.16
2019-03-19T06:12:48.523Z,1.22
2019-03-19T06:15:17.693Z,1.40
2019-03-19T06:17:46.639Z,1.53
2019-03-19T06:20:20.119Z,1.67
2019-03-19T06:22:48.995Z,1.63
2019-03-19T06:25:18.099Z,1.76
2019-03-19T06:27:47.001Z,1.76
2019-03-19T06:30:23.107Z,1.86
2019-03-19T06:32:51.983Z,1.97
2019-03-19T06:35:20.848Z,2.14
2019-03-19T06:37:49.729Z,2.27
2019-03-19T06:40:22.306Z,2.50
2019-03-19T06:42:51.334Z,2.58
2019-03-19T06:45:23.063Z,2.90
2019-03-19T06:47:51.414Z,3.05
2019-03-19T06:50:21.220Z,3.05
2019-03-19T06:52:50.174Z,3.20
2019-03-19T06:55:22.094Z,3.21
2019-03-19T06:57:50.956Z,3.24
2019-03-19T07:00:20.904Z,3.30
2019-03-19T07:02:50.879Z,3.32
2019-03-19T07:05:20.736Z,3.35
2019-03-19T07:07:49.620Z,3.50
2019-03-19T07:10:19.290Z,3.59
2019-03-19T07:12:48.206Z,3.65
2019-03-19T07:15:21.022Z,3.77
2019-03-19T07:17:49.914Z,3.82
2019-03-19T07:20:24.405Z,3.97
2019-03-19T07:22:53.317Z,4.19
2019-03-19T07:25:22.279Z,4.41
2019-03-19T07:27:51.134Z,4.53
2019-03-19T07:30:28.054Z,4.63
2019-03-19T07:32:56.964Z,4.59
2019-03-19T07:35:25.864Z,4.56
2019-03-19T07:37:54.710Z,4.71
2019-03-19T07:40:23.599Z,4.72
2019-03-19T07:42:52.460Z,4.62
2019-03-19T07:45:23.431Z,4.82
2019-03-19T07:47:52.310Z,4.85
2019-03-19T07:50:25.160Z,5.00
2019-03-19T07:52:54.027Z,5.16
2019-03-19T07:55:22.986Z,5.26
2019-03-19T07:57:51.854Z,5.33
2019-03-19T08:00:22.596Z,5.34
2019-03-19T08:02:51.590Z,5.38
2019-03-19T08:05:20.510Z,5.42
2019-03-19T08:07:49.394Z,5.41
2019-03-19T08:10:19.252Z,5.31
2019-03-19T08:12:48.359Z,5.42
2019-03-19T08:15:18.214Z,5.55
2019-03-19T08:17:47.269Z,5.61
2019-03-19T08:20:16.669Z,5.63
2019-03-19T08:22:45.519Z,5.25
2019-03-19T08:25:15.394Z,5.44
2019-03-19T08:27:44.441Z,5.71
2019-03-19T08:30:25.032Z,5.62
2019-03-19T08:32:54.415Z,5.76
2019-03-19T08:35:23.347Z,5.69
2019-03-19T08:37:52.185Z,5.14
2019-03-19T08:40:21.938Z,5.25
2019-03-19T08:42:50.836Z,5.41
2019-03-19T08:45:23.677Z,5.33
2019-03-19T08:47:52.551Z,5.46
2019-03-19T08:50:22.899Z,5.55
2019-03-19T08:52:51.794Z,5.82
2019-03-19T08:55:20.745Z,6.01
2019-03-19T08:57:49.669Z,6.17
2019-03-19T09:00:23.391Z,6.16
2019-03-19T09:02:52.233Z,6.27
2019-03-19T09:05:21.219Z,5.92
2019-03-19T09:07:50.076Z,5.95
2019-03-19T09:10:19.854Z,5.92
2019-03-19T09:12:49.123Z,5.75
2019-03-19T09:15:19.501Z,5.43
2019-03-19T09:17:48.359Z,5.53
2019-03-19T09:20:18.074Z,5.61
2019-03-19T09:22:46.919Z,5.70
2019-03-19T09:25:15.783Z,5.76
2019-03-19T09:27:44.654Z,5.76
2019-03-19T09:30:17.934Z,5.75
2019-03-19T09:32:46.922Z,5.89
2019-03-19T09:35:15.889Z,5.97
2019-03-19T09:37:57.326Z,6.34
2019-03-19T09:40:22.510Z,6.56
2019-03-19T09:42:51.502Z,6.61
2019-03-19T09:45:20.454Z,6.86
2019-03-19T09:47:49.302Z,6.97
2019-03-19T09:50:23.234Z,6.96
2019-03-19T09:52:52.104Z,6.91
2019-03-19T09:55:20.996Z,6.84
2019-03-19T09:57:49.842Z,6.68
2019-03-19T10:00:19.937Z,6.53
2019-03-19T10:02:48.985Z,6.69
2019-03-19T10:05:18.099Z,6.66
2019-03-19T10:07:47.369Z,6.16
2019-03-19T10:10:17.720Z,6.16
2019-03-19T10:12:46.719Z,6.60
2019-03-19T10:15:15.771Z,6.83
2019-03-19T10:17:44.649Z,7.08
2019-03-19T10:20:17.688Z,7.84
2019-03-19T10:22:46.300Z,8.82
2019-03-19T10:25:17.210Z,9.27
2019-03-19T10:27:46.308Z,9.48
2019-03-19T10:30:23.040Z,8.74
2019-03-19T10:32:51.928Z,9.17
2019-03-19T10:35:20.870Z,9.51
2019-03-19T10:37:49.724Z,9.59
2019-03-19T10:40:19.496Z,9.98
2019-03-19T10:42:48.346Z,9.25
2019-03-19T10:45:18.424Z,8.66
2019-03-19T10:47:47.268Z,8.25
2019-03-19T10:50:21.206Z,8.08
2019-03-19T10:52:49.302Z,8.94
2019-03-19T10:55:18.313Z,9.65
2019-03-19T10:57:47.272Z,9.15
2019-03-19T11:00:21.108Z,9.32
2019-03-19T11:02:49.359Z,10.30
2019-03-19T11:05:18.875Z,11.05
2019-03-19T11:07:47.857Z,10.85
2019-03-19T11:10:17.411Z,10.03
2019-03-19T11:12:46.289Z,9.21
2019-03-19T11:15:20.417Z,9.18
2019-03-19T11:17:49.330Z,8.96
2019-03-19T11:20:19.179Z,8.94
2019-03-19T11:22:48.264Z,9.02
2019-03-19T11:25:19.594Z,9.04
2019-03-19T11:27:48.564Z,9.43
2019-03-19T11:30:31.380Z,9.61
2019-03-19T11:33:00.232Z,10.50
2019-03-19T11:35:29.079Z,11.53
2019-03-19T11:37:57.975Z,11.46
2019-03-19T11:40:26.835Z,11.02
2019-03-19T11:42:55.730Z,10.30
2019-03-19T11:45:25.186Z,11.04
2019-03-19T11:47:54.226Z,10.96
2019-03-19T11:50:30.251Z,10.81
2019-03-19T11:52:59.148Z,9.95
2019-03-19T11:55:28.014Z,10.23
2019-03-19T11:57:57.808Z,11.40
2019-03-19T12:00:35.565Z,12.30
2019-03-19T12:03:14.759Z,12.27
2019-03-19T12:05:35.514Z,9.60
2019-03-19T12:08:04.575Z,9.79
2019-03-19T12:10:33.522Z,10.59
2019-03-19T12:13:02.376Z,10.32
2019-03-19T12:15:31.227Z,10.66
2019-03-19T12:18:00.299Z,11.32
2019-03-19T12:20:29.156Z,11.22
2019-03-19T12:22:58.226Z,10.98
2019-03-19T12:25:27.221Z,10.98
2019-03-19T12:27:56.189Z,10.41
2019-03-19T12:30:26.449Z,10.17
2019-03-19T12:32:55.571Z,10.91
2019-03-19T12:35:24.593Z,11.99
2019-03-19T12:37:53.455Z,13.62
2019-03-19T12:40:36.241Z,14.96
2019-03-19T12:42:55.496Z,15.87
2019-03-19T12:45:25.226Z,17.10
2019-03-19T12:47:54.080Z,17.29
2019-03-19T12:50:24.828Z,17.40
2019-03-19T12:52:53.874Z,16.29
2019-03-19T12:55:22.843Z,16.01
2019-03-19T12:57:51.850Z,15.45
2019-03-19T13:00:32.898Z,14.17
2019-03-19T13:02:53.149Z,12.60
2019-03-19T13:07:09.209Z,12.50
2019-03-19T13:07:52.649Z,12.33
2019-03-19T13:10:23.533Z,12.42
2019-03-19T13:12:52.378Z,11.93
2019-03-19T13:15:21.879Z,11.61
2019-03-19T13:17:50.724Z,11.02
2019-03-19T13:20:23.484Z,10.09
2019-03-19T13:22:52.363Z,9.98
2019-03-19T13:25:22.396Z,10.15
2019-03-19T13:27:51.304Z,10.27
2019-03-19T13:30:27.951Z,11.38
2019-03-19T13:32:56.800Z,12.39
2019-03-19T13:35:25.638Z,13.70
2019-03-19T13:37:54.540Z,14.35
2019-03-19T13:40:23.605Z,14.79
2019-03-19T13:42:52.511Z,14.31
2019-03-19T13:45:25.841Z,14.03
2019-03-19T13:47:54.733Z,14.09
2019-03-19T13:50:23.874Z,14.48
2019-03-19T13:52:52.861Z,14.54
2019-03-19T13:55:22.904Z,14.74
2019-03-19T13:57:51.823Z,14.09
2019-03-19T14:00:21.044Z,12.73
2019-03-19T14:02:49.895Z,11.92
2019-03-19T14:05:18.989Z,11.51
2019-03-19T14:07:47.845Z,12.08
2019-03-19T14:10:20.635Z,12.66
2019-03-19T14:12:49.645Z,12.63
2019-03-19T14:15:28.309Z,12.43
2019-03-19T14:17:57.186Z,12.37
2019-03-19T14:20:26.166Z,12.50
2019-03-19T14:22:55.830Z,12.47
2019-03-19T14:25:24.669Z,13.01
2019-03-19T14:27:53.567Z,12.58
2019-03-19T14:30:26.304Z,12.40
2019-03-19T14:32:55.189Z,12.52
2019-03-19T14:35:24.045Z,13.33
2019-03-19T14:37:52.929Z,13.95
2019-03-19T14:40:25.196Z,13.98
2019-03-19T14:42:54.200Z,14.72
2019-03-19T14:45:23.234Z,14.70
2019-03-19T14:47:52.106Z,13.81
2019-03-19T14:50:25.300Z,13.24
2019-03-19T14:52:54.263Z,13.58
2019-03-19T14:55:23.378Z,13.82
2019-03-19T14:57:52.221Z,14.06
2019-03-19T15:00:22.216Z,14.02
2019-03-19T15:02:51.065Z,14.01
2019-03-19T15:05:20.038Z,14.05
2019-03-19T15:07:48.899Z,14.33
2019-03-19T15:10:21.898Z,13.97
2019-03-19T15:12:50.753Z,13.38
2019-03-19T15:15:23.111Z,12.56
2019-03-19T15:17:52.063Z,12.45
2019-03-19T15:20:26.300Z,12.51
2019-03-19T15:22:55.208Z,12.75
2019-03-19T15:25:24.277Z,13.56
2019-03-19T15:27:53.367Z,13.49
2019-03-19T15:30:22.304Z,13.53
2019-03-19T15:32:51.318Z,13.59
2019-03-19T15:35:20.183Z,13.28
2019-03-19T15:37:49.248Z,13.40
2019-03-19T15:40:19.881Z,13.67
2019-03-19T15:42:48.835Z,13.36
2019-03-19T15:45:19.844Z,12.66
2019-03-19T15:47:48.895Z,12.57
2019-03-19T15:50:17.984Z,12.53
2019-03-19T15:52:46.940Z,12.44
2019-03-19T15:55:16.164Z,12.34
2019-03-19T15:57:45.221Z,11.88
2019-03-19T16:00:17.911Z,11.78
2019-03-19T16:02:46.999Z,11.44
2019-03-19T16:05:16.063Z,11.30
2019-03-19T16:07:45.066Z,10.56
2019-03-19T16:10:15.214Z,10.80
2019-03-19T16:12:44.294Z,10.57
2019-03-19T16:15:18.814Z,10.47
2019-03-19T16:17:48.083Z,10.54
2019-03-19T16:20:20.760Z,10.27
2019-03-19T16:22:50.041Z,9.60
2019-03-19T16:25:19.121Z,9.29
2019-03-19T16:27:48.239Z,9.28
2019-03-19T16:30:18.441Z,9.21
2019-03-19T16:32:47.682Z,9.10
2019-03-19T16:35:16.958Z,9.00
2019-03-19T16:37:46.198Z,9.01
2019-03-19T16:40:25.158Z,8.92
2019-03-19T16:42:54.397Z,8.72
2019-03-19T16:45:23.718Z,8.55
2019-03-19T16:47:52.840Z,8.42
2019-03-19T16:50:23.077Z,8.34
2019-03-19T16:52:52.277Z,8.23
2019-03-19T16:55:24.637Z,8.14
2019-03-19T16:57:53.849Z,8.03
2019-03-19T17:00:27.599Z,7.80
2019-03-19T17:02:56.759Z,7.80
2019-03-19T17:05:25.967Z,7.75
2019-03-19T17:07:55.277Z,7.19
2019-03-19T17:10:29.598Z,6.93
2019-03-19T17:12:58.719Z,6.53
2019-03-19T17:15:28.117Z,6.19
2019-03-19T17:17:57.319Z,5.99
2019-03-19T17:20:26.477Z,6.05
2019-03-19T17:22:55.677Z,5.91
2019-03-19T17:25:28.134Z,5.90
2019-03-19T17:27:57.396Z,5.57
2019-03-19T17:30:31.998Z,5.45
2019-03-19T17:33:01.198Z,5.71
2019-03-19T17:35:30.396Z,5.67
2019-03-19T17:37:59.604Z,5.47
2019-03-19T17:40:28.837Z,5.27
2019-03-19T17:42:58.102Z,4.62
2019-03-19T17:45:27.253Z,4.71
2019-03-19T17:47:56.401Z,4.71
2019-03-19T17:50:27.438Z,4.51
2019-03-19T17:52:57.241Z,4.37
2019-03-19T17:55:26.336Z,4.03
2019-03-19T17:57:55.608Z,4.21
2019-03-19T18:00:26.277Z,3.97
2019-03-19T18:02:55.514Z,4.16
2019-03-19T18:05:24.759Z,4.31
2019-03-19T18:07:54.677Z,4.44
2019-03-19T18:10:23.997Z,4.54
2019-03-19T18:12:53.118Z,4.51
2019-03-19T18:15:22.406Z,4.68
2019-03-19T18:17:51.517Z,4.81
2019-03-19T18:20:20.830Z,4.66
2019-03-19T18:22:50.131Z,4.55
2019-03-19T18:25:20.356Z,4.37
2019-03-19T18:27:49.518Z,4.21
2019-03-19T18:30:21.438Z,4.03
2019-03-19T18:32:52.880Z,3.85
2019-03-19T18:35:26.965Z,3.74
2019-03-19T18:37:55.996Z,3.69
2019-03-19T18:40:25.191Z,3.60
2019-03-19T18:42:54.362Z,3.52
2019-03-19T18:45:23.997Z,3.41
2019-03-19T18:47:53.162Z,3.40
2019-03-19T18:50:23.118Z,3.34
2019-03-19T18:52:52.358Z,3.28
2019-03-19T18:55:21.620Z,3.13
2019-03-19T18:57:50.907Z,3.04
2019-03-19T19:00:21.293Z,3.09
2019-03-19T19:02:51.266Z,2.85
2019-03-19T19:05:22.429Z,2.62
2019-03-19T19:07:51.598Z,2.58
2019-03-19T19:10:21.731Z,2.94
2019-03-19T19:12:51.239Z,3.53
2019-03-19T19:15:22.396Z,3.55
2019-03-19T19:17:51.644Z,3.58
2019-03-19T19:20:20.878Z,3.43
2019-03-19T19:22:50.196Z,3.12
2019-03-19T19:25:23.438Z,2.98
2019-03-19T19:27:52.758Z,2.95
2019-03-19T19:30:23.037Z,3.00
2019-03-19T19:33:00.893Z,3.10
2019-03-19T19:35:23.158Z,3.13
2019-03-19T19:37:52.357Z,3.03
2019-03-19T19:40:21.760Z,2.94
2019-03-19T19:42:50.963Z,2.87
2019-03-19T19:45:20.676Z,2.80
2019-03-19T19:47:49.919Z,2.76
2019-03-19T19:50:23.443Z,2.70
2019-03-19T19:52:52.785Z,2.46
2019-03-19T19:55:22.010Z,2.37
2019-03-19T19:57:51.201Z,2.40
2019-03-19T20:00:23.807Z,2.29
2019-03-19T20:02:53.158Z,2.34
2019-03-19T20:05:22.478Z,2.35
2019-03-19T20:07:51.717Z,2.28
2019-03-19T20:10:28.285Z,2.27
2019-03-19T20:12:57.516Z,2.26
2019-03-19T20:15:26.716Z,2.20
2019-03-19T20:17:55.942Z,2.14
2019-03-19T20:20:32.967Z,1.95
2019-03-19T20:23:02.115Z,1.60
2019-03-19T20:25:31.443Z,1.69
2019-03-19T20:28:00.796Z,1.54
2019-03-19T20:30:30.039Z,1.42
2019-03-19T20:32:59.198Z,1.01
2019-03-19T20:35:28.438Z,0.93
2019-03-19T20:37:57.650Z,0.94
2019-03-19T20:40:27.251Z,0.52
2019-03-19T20:42:56.506Z,0.78
2019-03-19T20:45:26.682Z,0.61
2019-03-19T20:47:55.847Z,0.60
2019-03-19T20:50:29.477Z,0.70
2019-03-19T20:52:57.730Z,0.63
2019-03-19T20:55:26.946Z,0.55
2019-03-19T20:57:56.059Z,0.50
2019-03-19T21:00:25.228Z,0.67
2019-03-19T21:02:54.431Z,0.52
2019-03-19T21:05:23.749Z,0.61
2019-03-19T21:07:53.019Z,0.79
2019-03-19T21:10:23.428Z,0.77
2019-03-19T21:12:52.661Z,1.03
2019-03-19T21:15:26.467Z,1.03
2019-03-19T21:17:55.852Z,1.12
2019-03-19T21:20:25.183Z,1.06
2019-03-19T21:22:54.345Z,1.11
2019-03-19T21:25:23.583Z,1.18
2019-03-19T21:27:52.782Z,1.06
2019-03-19T21:30:23.743Z,1.09
2019-03-19T21:32:53.064Z,0.91
2019-03-19T21:35:24.501Z,0.77
2019-03-19T21:37:53.700Z,0.64
2019-03-19T21:40:22.700Z,0.57
2019-03-19T21:42:51.981Z,0.64
2019-03-19T21:45:24.342Z,0.59
2019-03-19T21:47:53.500Z,0.50
2019-03-19T21:50:26.507Z,0.53
2019-03-19T21:52:55.830Z,0.54
2019-03-19T21:55:25.021Z,0.62
2019-03-19T21:57:53.940Z,0.78
2019-03-19T22:00:25.221Z,0.59
2019-03-19T22:02:54.259Z,0.65
2019-03-19T22:05:23.461Z,0.55
2019-03-19T22:07:52.344Z,0.46
2019-03-19T22:10:22.505Z,0.41
2019-03-19T22:12:51.628Z,0.44
2019-03-19T22:15:24.421Z,0.40
2019-03-19T22:17:53.508Z,0.46
2019-03-19T22:20:22.543Z,0.66
2019-03-19T22:22:51.421Z,0.60
2019-03-19T22:25:20.541Z,0.58
2019-03-19T22:27:49.659Z,0.53
2019-03-19T22:30:20.507Z,0.57
2019-03-19T22:32:49.619Z,0.43
2019-03-19T22:35:18.699Z,0.44
2019-03-19T22:37:47.702Z,0.48
2019-03-19T22:40:18.420Z,0.42
2019-03-19T22:42:47.471Z,0.49
2019-03-19T22:45:19.780Z,0.52
2019-03-19T22:47:48.939Z,0.63
2019-03-19T22:50:18.540Z,0.65
2019-03-19T22:52:47.784Z,0.67
2019-03-19T22:55:28.117Z,0.73
2019-03-19T22:57:47.980Z,0.78
2019-03-19T23:00:23.941Z,0.90
2019-03-19T23:02:53.021Z,0.87
2019-03-19T23:05:22.019Z,0.79
2019-03-19T23:07:51.060Z,0.91
2019-03-19T23:10:20.022Z,0.84
2019-03-19T23:12:49.222Z,0.70
2019-03-19T23:15:18.302Z,0.72
2019-03-19T23:17:47.499Z,0.97
2019-03-19T23:20:16.543Z,1.04
2019-03-19T23:22:45.541Z,1.00
2019-03-19T23:25:14.864Z,0.99
2019-03-19T23:27:43.901Z,0.81
2019-03-19T23:30:18.343Z,0.68
2019-03-19T23:32:47.261Z,0.72
2019-03-19T23:35:16.341Z,0.64
2019-03-19T23:37:45.221Z,0.62
2019-03-19T23:40:21.219Z,0.66
2019-03-19T23:42:50.267Z,0.64
2019-03-19T23:45:19.382Z,0.66
2019-03-19T23:47:48.381Z,0.49
2019-03-19T23:50:20.861Z,0.37
2019-03-19T23:52:49.741Z,0.33
2019-03-19T23:55:18.747Z,0.18
2019-03-19T23:57:47.782Z,0.37
